createdAt,value
2019-02-10T03:08:12.312Z,-5.8
2019-02-10T03:09:01.746Z,-5.8
2019-02-10T03:09:52.340Z,-5.8
2019-02-10T03:10:42.385Z,-5.8
2019-02-10T03:11:32.425Z,-5.8
2019-02-10T03:12:22.533Z,-5.8
2019-02-10T03:13:12.540Z,-5.8
2019-02-10T03:14:02.333Z,-5.8
2019-02-10T03:14:52.674Z,-5.8
2019-02-10T03:15:42.728Z,-5.8
2019-02-10T03:16:32.773Z,-5.8
2019-02-10T03:17:22.547Z,-5.8
2019-02-10T03:18:12.975Z,-5.8
2019-02-10T03:19:02.934Z,-5.8
2019-02-10T03:19:53.025Z,-5.8
2019-02-10T03:20:43.054Z,-5.8
2019-02-10T03:21:32.860Z,-5.8
2019-02-10T03:22:23.195Z,-5.8
2019-02-10T03:23:13.230Z,-5.8
2019-02-10T03:24:03.316Z,-5.9
2019-02-10T03:24:53.101Z,-5.9
2019-02-10T03:25:43.143Z,-5.8
2019-02-10T03:26:33.467Z,-5.9
2019-02-10T03:27:23.271Z,-5.9
2019-02-10T03:28:13.582Z,-5.9
2019-02-10T03:29:03.641Z,-5.9
2019-02-10T03:29:53.721Z,-5.9
2019-02-10T03:30:43.773Z,-5.9
2019-02-10T03:31:33.842Z,-5.9
2019-02-10T03:32:23.602Z,-5.9
2019-02-10T03:33:13.973Z,-5.9
2019-02-10T03:34:03.991Z,-5.9
2019-02-10T03:34:54.039Z,-5.9
2019-02-10T03:35:44.091Z,-5.9
2019-02-10T03:36:33.883Z,-5.9
2019-02-10T03:37:28.690Z,-5.9
2019-02-10T03:38:14.042Z,-5.9
2019-02-10T03:39:04.318Z,-5.9
2019-02-10T03:39:54.381Z,-5.9
2019-02-10T03:40:44.153Z,-5.9
2019-02-10T03:41:34.503Z,-5.9
2019-02-10T03:42:24.566Z,-5.9
2019-02-10T03:43:14.626Z,-5.9
2019-02-10T03:44:04.675Z,-5.9
2019-02-10T03:44:54.726Z,-6
2019-02-10T03:45:44.781Z,-5.9
2019-02-10T03:46:34.851Z,-5.9
2019-02-10T03:47:24.915Z,-6
2019-02-10T03:48:14.957Z,-5.9
2019-02-10T03:49:04.741Z,-6
2019-02-10T03:49:55.099Z,-6
2019-02-10T03:50:44.854Z,-6
2019-02-10T03:51:35.215Z,-6
2019-02-10T03:52:24.690Z,-6
2019-02-10T03:53:15.305Z,-6
2019-02-10T03:54:04.817Z,-6
2019-02-10T03:54:55.125Z,-6.1
2019-02-10T03:55:45.540Z,-6.1
2019-02-10T03:56:35.250Z,-6.1
2019-02-10T03:57:25.587Z,-6
2019-02-10T03:58:15.634Z,-6.1
2019-02-10T03:59:05.470Z,-6.1
2019-02-10T03:59:55.746Z,-6.1
2019-02-10T04:00:45.544Z,-6.1
2019-02-10T04:01:35.863Z,-6.1
2019-02-10T04:02:25.934Z,-6.1
2019-02-10T04:03:15.702Z,-6.1
2019-02-10T04:04:06.044Z,-6.1
2019-02-10T04:04:56.095Z,-6.1
2019-02-10T04:05:46.156Z,-6.1
2019-02-10T04:06:35.941Z,-6.1
2019-02-10T04:07:26.304Z,-6.1
2019-02-10T04:08:16.320Z,-6.1
2019-02-10T04:09:06.420Z,-6.1
2019-02-10T04:09:56.441Z,-6.1
2019-02-10T04:10:46.583Z,-6.1
2019-02-10T04:11:36.004Z,-6.1
2019-02-10T04:12:26.622Z,-6.2
2019-02-10T04:13:16.671Z,-6.2
2019-02-10T04:14:06.751Z,-6.2
2019-02-10T04:14:56.251Z,-6.2
2019-02-10T04:15:46.566Z,-6.3
2019-02-10T04:16:36.931Z,-6.2
2019-02-10T04:17:26.966Z,-6.3
2019-02-10T04:18:17.029Z,-6.3
2019-02-10T04:19:07.078Z,-6.3
2019-02-10T04:19:57.188Z,-6.3
2019-02-10T04:20:47.195Z,-6.3
2019-02-10T04:21:37.258Z,-6.3
2019-02-10T04:22:27.298Z,-6.3
2019-02-10T04:23:17.100Z,-6.3
2019-02-10T04:24:07.410Z,-6.3
2019-02-10T04:24:57.466Z,-6.3
2019-02-10T04:25:47.299Z,-6.3
2019-02-10T04:26:37.306Z,-6.3
2019-02-10T04:27:27.649Z,-6.4
2019-02-10T04:28:17.435Z,-6.3
2019-02-10T04:29:07.751Z,-6.3
2019-02-10T04:29:57.817Z,-6.3
2019-02-10T04:30:47.871Z,-6.3
2019-02-10T04:31:37.940Z,-6.4
2019-02-10T04:32:28.007Z,-6.4
2019-02-10T04:33:18.045Z,-6.4
2019-02-10T04:34:08.148Z,-6.4
2019-02-10T04:34:57.889Z,-6.4
2019-02-10T04:35:47.948Z,-6.4
2019-02-10T04:36:37.995Z,-6.4
2019-02-10T04:37:28.058Z,-6.4
2019-02-10T04:38:18.115Z,-6.4
2019-02-10T04:39:08.450Z,-6.4
2019-02-10T04:39:58.508Z,-6.4
2019-02-10T04:40:48.572Z,-6.4
2019-02-10T04:41:38.416Z,-6.4
2019-02-10T04:42:28.411Z,-6.5
2019-02-10T04:43:18.729Z,-6.5
2019-02-10T04:44:08.522Z,-6.4
2019-02-10T04:44:58.872Z,-6.5
2019-02-10T04:45:48.635Z,-6.5
2019-02-10T04:46:38.686Z,-6.5
2019-02-10T04:47:29.015Z,-6.5
2019-02-10T04:48:18.570Z,-6.5
2019-02-10T04:49:08.866Z,-6.5
2019-02-10T04:49:59.199Z,-6.6
2019-02-10T04:50:49.258Z,-6.5
2019-02-10T04:51:39.319Z,-6.5
2019-02-10T04:52:29.362Z,-6.6
2019-02-10T04:53:19.424Z,-6.6
2019-02-10T04:54:09.484Z,-6.6
2019-02-10T04:54:59.526Z,-6.6
2019-02-10T04:55:49.607Z,-6.6
2019-02-10T04:56:39.648Z,-6.6
2019-02-10T04:57:29.461Z,-6.6
2019-02-10T04:58:19.778Z,-6.6
2019-02-10T04:59:09.561Z,-6.6
2019-02-10T04:59:59.624Z,-6.6
2019-02-10T05:00:49.930Z,-6.6
2019-02-10T05:01:40.011Z,-6.6
2019-02-10T05:02:30.097Z,-6.6
2019-02-10T05:03:19.555Z,-6.6
2019-02-10T05:04:09.893Z,-6.6
2019-02-10T05:05:00.284Z,-6.6
2019-02-10T05:05:50.293Z,-6.6
2019-02-10T05:06:40.143Z,-6.6
2019-02-10T05:07:30.393Z,-6.6
2019-02-10T05:08:20.444Z,-6.7
2019-02-10T05:09:10.512Z,-6.7
2019-02-10T05:10:00.681Z,-6.7
2019-02-10T05:10:50.652Z,-6.7
2019-02-10T05:11:40.687Z,-6.7
2019-02-10T05:12:30.463Z,-6.7
2019-02-10T05:13:20.803Z,-6.7
2019-02-10T05:14:10.565Z,-6.7
2019-02-10T05:15:00.915Z,-6.8
2019-02-10T05:15:50.734Z,-6.8
2019-02-10T05:16:41.033Z,-6.8
2019-02-10T05:17:31.092Z,-6.8
2019-02-10T05:18:21.137Z,-6.8
2019-02-10T05:19:11.213Z,-6.8
2019-02-10T05:20:01.337Z,-6.8
2019-02-10T05:20:51.040Z,-6.8
2019-02-10T05:21:41.365Z,-6.8
2019-02-10T05:22:31.165Z,-6.8
2019-02-10T05:23:21.208Z,-6.8
2019-02-10T05:24:11.604Z,-6.8
2019-02-10T05:25:01.605Z,-6.8
2019-02-10T05:25:51.664Z,-6.8
2019-02-10T05:26:41.419Z,-6.8
2019-02-10T05:27:31.805Z,-6.8
2019-02-10T05:28:21.840Z,-6.8
2019-02-10T05:29:11.884Z,-6.8
2019-02-10T05:30:02.019Z,-6.8
2019-02-10T05:30:52.002Z,-6.8
2019-02-10T05:31:42.070Z,-6.8
2019-02-10T05:32:32.121Z,-6.8
2019-02-10T05:33:22.259Z,-6.9
2019-02-10T05:34:12.234Z,-6.9
2019-02-10T05:35:02.370Z,-6.9
2019-02-10T05:35:52.331Z,-6.9
2019-02-10T05:36:41.884Z,-6.9
2019-02-10T05:37:32.468Z,-6.9
2019-02-10T05:38:22.501Z,-6.9
2019-02-10T05:39:12.571Z,-6.9
2019-02-10T05:40:02.339Z,-6.9
2019-02-10T05:40:52.673Z,-6.9
2019-02-10T05:41:42.763Z,-6.9
2019-02-10T05:42:32.844Z,-6.9
2019-02-10T05:43:22.857Z,-6.9
2019-02-10T05:44:12.973Z,-6.8
2019-02-10T05:45:02.973Z,-6.9
2019-02-10T05:45:53.025Z,-6.9
2019-02-10T05:46:43.086Z,-6.8
2019-02-10T05:47:32.888Z,-6.9
2019-02-10T05:48:22.918Z,-6.8
2019-02-10T05:49:13.257Z,-6.8
2019-02-10T05:50:03.036Z,-6.8
2019-02-10T05:50:53.358Z,-6.8
2019-02-10T05:51:43.468Z,-6.8
2019-02-10T05:52:33.518Z,-6.8
2019-02-10T05:53:23.547Z,-6.8
2019-02-10T05:54:13.575Z,-6.8
2019-02-10T05:55:03.662Z,-6.8
2019-02-10T05:55:53.710Z,-6.8
2019-02-10T05:56:43.781Z,-6.8
2019-02-10T05:57:33.824Z,-6.8
2019-02-10T05:58:23.616Z,-6.8
2019-02-10T05:59:13.937Z,-6.7
2019-02-10T06:00:03.992Z,-6.7
2019-02-10T06:00:54.047Z,-6.7
2019-02-10T06:01:44.117Z,-6.6
2019-02-10T06:02:34.155Z,-6.6
2019-02-10T06:03:24.260Z,-6.6
2019-02-10T06:04:14.274Z,-6.6
2019-02-10T06:06:12.034Z,-6.6
2019-02-10T06:07:02.148Z,-6.4
2019-02-10T06:07:52.165Z,-6.4
2019-02-10T06:08:42.267Z,-6.4
2019-02-10T06:09:32.297Z,-6.4
2019-02-10T06:10:22.332Z,-6.4
2019-02-10T06:11:12.375Z,-6.3
2019-02-10T06:12:02.442Z,-6.3
2019-02-10T06:12:52.497Z,-6.2
2019-02-10T06:13:42.545Z,-6.2
2019-02-10T06:14:32.616Z,-6.1
2019-02-10T06:15:22.661Z,-6.1
2019-02-10T06:16:12.716Z,-6
2019-02-10T06:17:02.516Z,-5.9
2019-02-10T06:17:52.834Z,-5.9
2019-02-10T06:18:42.946Z,-5.8
2019-02-10T06:19:33.124Z,-5.8
2019-02-10T06:20:22.998Z,-5.7
2019-02-10T06:21:13.693Z,-5.6
2019-02-10T06:22:02.846Z,-5.5
2019-02-10T06:22:53.182Z,-5.4
2019-02-10T06:23:42.962Z,-5.3
2019-02-10T06:24:33.518Z,-5.3
2019-02-10T06:25:23.113Z,-5.1
2019-02-10T06:26:13.418Z,-5
2019-02-10T06:27:03.195Z,-4.9
2019-02-10T06:27:53.526Z,-4.8
2019-02-10T06:28:43.304Z,-4.7
2019-02-10T06:29:33.638Z,-4.6
2019-02-10T06:30:23.703Z,-4.4
2019-02-10T06:31:13.473Z,-4.3
2019-02-10T06:32:03.818Z,-4.3
2019-02-10T06:32:53.581Z,-4.1
2019-02-10T06:33:43.910Z,-4
2019-02-10T06:34:33.970Z,-3.9
2019-02-10T06:36:13.880Z,-3.6
2019-02-10T06:37:03.890Z,-3.5
2019-02-10T06:37:53.940Z,-3.4
2019-02-10T06:38:43.999Z,-3.3
2019-02-10T06:39:34.333Z,-3.1
2019-02-10T06:40:24.382Z,-3
2019-02-10T06:41:14.427Z,-2.9
2019-02-10T06:42:04.212Z,-2.8
2019-02-10T06:42:54.560Z,-2.6
2019-02-10T06:43:44.595Z,-2.4
2019-02-10T06:44:34.110Z,-2.3
2019-02-10T06:45:24.713Z,-2.1
2019-02-10T06:46:14.824Z,-1.9
2019-02-10T06:47:04.827Z,-1.8
2019-02-10T06:47:54.607Z,-1.6
2019-02-10T06:48:44.707Z,-1.4
2019-02-10T06:49:35.010Z,-1.2
2019-02-10T06:50:25.066Z,-1
2019-02-10T06:51:15.124Z,-0.8
2019-02-10T06:52:05.174Z,-0.6
2019-02-10T06:52:54.959Z,-0.4
2019-02-10T06:53:45.291Z,-0.2
2019-02-10T06:54:35.362Z,0.1
2019-02-10T06:55:25.134Z,0.3
2019-02-10T06:56:15.466Z,0.5
2019-02-10T06:57:05.516Z,0.8
2019-02-10T06:57:55.019Z,1.1
2019-02-10T06:58:45.354Z,1.3
2019-02-10T06:59:35.684Z,1.6
2019-02-10T07:00:25.758Z,1.8
2019-02-10T07:01:15.806Z,2.1
2019-02-10T07:02:05.854Z,2.4
2019-02-10T07:02:55.924Z,2.7
2019-02-10T07:03:45.706Z,3
2019-02-10T07:06:11.983Z,3.8
2019-02-10T07:07:02.059Z,4.3
2019-02-10T07:07:52.103Z,4.6
2019-02-10T07:08:42.488Z,4.9
2019-02-10T07:09:32.266Z,5.3
2019-02-10T07:10:22.270Z,5.6
2019-02-10T07:11:11.508Z,5.9
2019-02-10T07:12:02.386Z,6.3
2019-02-10T07:12:52.443Z,6.6
2019-02-10T07:13:42.503Z,6.9
2019-02-10T07:14:32.570Z,7.3
2019-02-10T07:15:22.618Z,7.7
2019-02-10T07:16:12.400Z,8.1
2019-02-10T07:17:02.455Z,8.4
2019-02-10T07:17:52.797Z,8.8
2019-02-10T07:18:42.843Z,9.2
2019-02-10T07:19:32.950Z,3.4
2019-02-10T07:20:22.960Z,5.2
2019-02-10T07:21:13.021Z,7.9
2019-02-10T07:22:02.802Z,8.5
2019-02-10T07:22:53.144Z,18.6
2019-02-10T07:23:43.189Z,41.4
2019-02-10T07:24:32.991Z,48.5
2019-02-10T07:25:23.315Z,47
2019-02-10T07:26:12.820Z,42.9
2019-02-10T07:27:03.160Z,41.3
2019-02-10T07:27:53.482Z,40.4
2019-02-10T07:28:43.265Z,39.8
2019-02-10T07:29:33.332Z,39.3
2019-02-10T07:30:23.652Z,38.9
2019-02-10T07:31:13.439Z,38.5
2019-02-10T07:32:03.504Z,38.2
2019-02-10T07:32:53.841Z,37.8
2019-02-10T07:33:43.895Z,37.6
2019-02-10T07:34:33.955Z,37.3
2019-02-10T07:35:24.031Z,36.9
2019-02-10T07:36:14.059Z,36.8
2019-02-10T07:37:04.140Z,36.5
2019-02-10T07:37:54.199Z,36.3
2019-02-10T07:38:44.229Z,42
2019-02-10T07:39:34.300Z,43.8
2019-02-10T07:40:24.082Z,49.2
2019-02-10T07:41:14.169Z,50.3
2019-02-10T07:42:04.466Z,50.8
2019-02-10T07:42:54.273Z,51.3
2019-02-10T07:43:44.121Z,51.3
2019-02-10T07:44:34.638Z,51.1
2019-02-10T07:45:24.749Z,51.4
2019-02-10T07:46:14.498Z,51.2
2019-02-10T07:47:04.540Z,52.2
2019-02-10T07:47:55.689Z,51.8
2019-02-10T07:48:44.450Z,52.1
2019-02-10T07:49:34.514Z,52.8
2019-02-10T07:50:24.579Z,52.9
2019-02-10T07:51:15.106Z,52.7
2019-02-10T07:52:04.685Z,52.6
2019-02-10T07:52:54.740Z,52.6
2019-02-10T07:53:44.797Z,52.8
2019-02-10T07:54:43.052Z,52.8
2019-02-10T07:55:24.635Z,53
2019-02-10T07:56:14.972Z,53.2
2019-02-10T07:57:05.025Z,53.3
2019-02-10T07:57:55.087Z,53.2
2019-02-10T07:58:45.138Z,53
2019-02-10T07:59:35.197Z,52.8
2019-02-10T08:00:25.272Z,52.7
2019-02-10T08:01:15.320Z,52.8
2019-02-10T08:02:05.867Z,52.9
2019-02-10T08:02:55.434Z,53.1
2019-02-10T08:03:45.495Z,53.3
2019-02-10T08:04:35.557Z,53.4
2019-02-10T08:05:25.600Z,53.6
2019-02-10T08:06:15.667Z,53.6
2019-02-10T08:07:06.204Z,53.8
2019-02-10T08:07:55.774Z,53.9
2019-02-10T08:08:48.247Z,54
2019-02-10T08:09:36.089Z,54.1
2019-02-10T08:10:26.429Z,54.3
2019-02-10T08:11:16.482Z,54.4
2019-02-10T08:12:06.547Z,54.6
2019-02-10T08:12:56.617Z,54.7
2019-02-10T08:13:46.401Z,54.8
2019-02-10T08:14:36.719Z,54.9
2019-02-10T08:15:26.288Z,55.1
2019-02-10T08:16:16.834Z,55.1
2019-02-10T08:17:06.897Z,55.3
2019-02-10T08:17:56.676Z,55.4
2019-02-10T08:18:47.009Z,55.4
2019-02-10T08:19:37.071Z,55.6
2019-02-10T08:20:26.849Z,55.7
2019-02-10T08:21:17.275Z,55.8
2019-02-10T08:22:07.239Z,55.9
2019-02-10T08:22:57.016Z,56.1
2019-02-10T08:23:47.348Z,56.2
2019-02-10T08:24:37.418Z,56.3
2019-02-10T08:25:27.545Z,56.4
2019-02-10T08:26:17.541Z,56.6
2019-02-10T08:27:07.586Z,56.7
2019-02-10T08:27:57.423Z,56.8
2019-02-10T08:28:47.440Z,56.9
2019-02-10T08:29:37.818Z,57
2019-02-10T08:30:27.815Z,57.1
2019-02-10T08:31:17.870Z,57.3
2019-02-10T08:32:07.930Z,57.4
2019-02-10T08:32:57.990Z,57.6
2019-02-10T08:33:47.775Z,57.6
2019-02-10T08:35:28.925Z,57.9
2019-02-10T08:36:17.940Z,57.9
2019-02-10T08:37:08.287Z,58.1
2019-02-10T08:37:58.068Z,58.1
2019-02-10T08:38:55.858Z,58.3
2019-02-10T08:39:38.177Z,58.4
2019-02-10T08:40:28.544Z,58.4
2019-02-10T08:41:18.572Z,58.5
2019-02-10T08:42:08.357Z,58.6
2019-02-10T08:42:58.693Z,58.8
2019-02-10T08:43:48.467Z,58.9
2019-02-10T08:44:38.804Z,59.1
2019-02-10T08:45:28.858Z,59.2
2019-02-10T08:46:18.922Z,59.3
2019-02-10T08:47:08.987Z,59.3
2019-02-10T08:47:59.033Z,59.4
2019-02-10T08:48:48.824Z,59.5
2019-02-10T08:49:39.152Z,59.6
2019-02-10T08:50:28.977Z,59.6
2019-02-10T08:51:19.274Z,59.7
2019-02-10T08:52:09.326Z,59.8
2019-02-10T08:52:59.114Z,59.8
2019-02-10T08:53:49.172Z,59.9
2019-02-10T08:54:39.501Z,60.1
2019-02-10T08:55:29.058Z,60.1
2019-02-10T08:56:19.616Z,60.3
2019-02-10T08:57:09.414Z,60.3
2019-02-10T08:57:59.469Z,60.4
2019-02-10T08:58:49.801Z,60.4
2019-02-10T08:59:39.849Z,60.5
2019-02-10T09:00:29.909Z,60.6
2019-02-10T09:01:19.999Z,60.7
2019-02-10T09:02:10.027Z,60.8
2019-02-10T09:03:00.093Z,60.8
2019-02-10T09:03:49.875Z,60.9
2019-02-10T09:04:40.203Z,61.1
2019-02-10T09:05:29.989Z,61.2
2019-02-10T09:06:20.041Z,61.3
2019-02-10T09:07:10.373Z,61.4
2019-02-10T09:08:00.466Z,61.4
2019-02-10T09:08:50.493Z,61.5
2019-02-10T09:09:40.560Z,61.6
2019-02-10T09:10:30.351Z,61.6
2019-02-10T09:11:20.413Z,61.7
2019-02-10T09:12:10.733Z,61.8
2019-02-10T09:13:00.794Z,61.8
2019-02-10T09:13:50.907Z,61.8
2019-02-10T09:14:40.630Z,61.9
2019-02-10T09:15:30.956Z,61.9
2019-02-10T09:16:21.013Z,61.9
2019-02-10T09:17:11.070Z,61.9
2019-02-10T09:18:01.127Z,62.1
2019-02-10T09:18:50.910Z,62.1
2019-02-10T09:19:40.965Z,62.3
2019-02-10T09:20:31.307Z,62.3
2019-02-10T09:21:21.377Z,62.3
2019-02-10T09:22:11.147Z,62.3
2019-02-10T09:23:01.485Z,62.3
2019-02-10T09:23:51.537Z,62.3
2019-02-10T09:24:41.329Z,62.4
2019-02-10T09:25:31.652Z,62.5
2019-02-10T09:26:21.428Z,62.6
2019-02-10T09:27:11.766Z,62.8
2019-02-10T09:28:01.823Z,62.9
2019-02-10T09:28:51.877Z,62.9
2019-02-10T09:29:41.979Z,63.1
2019-02-10T09:30:31.467Z,63.1
2019-02-10T09:31:22.064Z,63.2
2019-02-10T09:32:12.121Z,63.3
2019-02-10T09:33:01.891Z,63.4
2019-02-10T09:33:51.953Z,63.5
2019-02-10T09:34:42.291Z,63.6
2019-02-10T09:35:32.352Z,63.7
2019-02-10T09:36:22.414Z,63.7
2019-02-10T09:37:12.191Z,63.7
2019-02-10T09:38:02.526Z,63.8
2019-02-10T09:38:52.304Z,63.9
2019-02-10T09:39:42.361Z,63.9
2019-02-10T09:40:32.716Z,64
2019-02-10T09:41:22.756Z,64
2019-02-10T09:42:12.541Z,64
2019-02-10T09:43:02.874Z,64.1
2019-02-10T09:43:52.931Z,64.1
2019-02-10T09:44:42.722Z,64.2
2019-02-10T09:45:33.041Z,64.3
2019-02-10T09:46:23.160Z,64.4
2019-02-10T09:47:13.162Z,64.4
2019-02-10T09:48:02.941Z,64.5
2019-02-10T09:48:53.275Z,64.6
2019-02-10T09:49:43.328Z,64.7
2019-02-10T09:50:33.403Z,64.8
2019-02-10T09:51:23.452Z,64.8
2019-02-10T09:52:13.503Z,64.9
2019-02-10T09:53:03.574Z,64.9
2019-02-10T09:53:53.348Z,65
2019-02-10T09:54:43.678Z,65.1
2019-02-10T09:55:33.750Z,65.1
2019-02-10T09:56:23.525Z,65.1
2019-02-10T09:57:13.573Z,65.3
2019-02-10T09:58:03.905Z,65.3
2019-02-10T09:58:53.972Z,65.3
2019-02-10T09:59:44.027Z,65.3
2019-02-10T10:00:33.815Z,65.4
2019-02-10T10:01:24.154Z,65.4
2019-02-10T10:02:14.205Z,65.5
2019-02-10T10:03:04.260Z,65.6
2019-02-10T10:03:54.315Z,65.7
2019-02-10T10:04:44.380Z,65.8
2019-02-10T10:07:11.847Z,65.9
2019-02-10T10:08:01.901Z,65.9
2019-02-10T10:08:51.957Z,65.6
2019-02-10T10:09:42.009Z,65.6
2019-02-10T10:10:31.792Z,65.7
2019-02-10T10:11:22.126Z,65.7
2019-02-10T10:12:12.189Z,65.8
2019-02-10T10:13:02.279Z,65.8
2019-02-10T10:13:52.019Z,65.9
2019-02-10T10:14:42.361Z,66
2019-02-10T10:15:32.414Z,65.9
2019-02-10T10:16:22.489Z,64.3
2019-02-10T10:17:12.527Z,61.8
2019-02-10T10:18:02.321Z,59.1
2019-02-10T10:18:52.656Z,57.6
2019-02-10T10:19:42.696Z,57.3
2019-02-10T10:20:32.751Z,56.4
2019-02-10T10:21:22.564Z,55.4
2019-02-10T10:22:12.874Z,55.4
2019-02-10T10:23:02.978Z,54.6
2019-02-10T10:23:52.708Z,54.4
2019-02-10T10:24:51.368Z,54.3
2019-02-10T10:25:33.098Z,54.4
2019-02-10T10:26:23.166Z,54.7
2019-02-10T10:27:12.941Z,54.9
2019-02-10T10:28:03.308Z,55.2
2019-02-10T10:28:53.070Z,55.5
2019-02-10T10:29:43.394Z,55.8
2019-02-10T10:30:33.448Z,56.1
2019-02-10T10:31:23.512Z,56.3
2019-02-10T10:32:13.575Z,56.6
2019-02-10T10:33:03.622Z,56.4
2019-02-10T10:33:53.696Z,56.5
2019-02-10T10:34:43.741Z,56.8
2019-02-10T10:35:33.791Z,57.1
2019-02-10T10:36:23.849Z,57.4
2019-02-10T10:37:13.910Z,57.2
2019-02-10T10:38:03.692Z,56.8
2019-02-10T10:38:54.024Z,56.8
2019-02-10T10:39:44.083Z,57.1
2019-02-10T10:40:34.141Z,57.3
2019-02-10T10:41:24.226Z,56.8
2019-02-10T10:42:14.262Z,56.7
2019-02-10T10:43:04.324Z,56.9
2019-02-10T10:43:54.375Z,56.6
2019-02-10T10:44:44.438Z,56.1
2019-02-10T10:45:34.493Z,55.6
2019-02-10T10:46:24.546Z,55.7
2019-02-10T10:47:14.601Z,55.8
2019-02-10T10:48:04.395Z,56.1
2019-02-10T10:48:54.731Z,56.4
2019-02-10T10:49:44.519Z,56.7
2019-02-10T10:50:34.835Z,56.9
2019-02-10T10:51:24.895Z,57.3
2019-02-10T10:52:14.947Z,57.4
2019-02-10T10:53:05.005Z,57.6
2019-02-10T10:53:54.834Z,57.9
2019-02-10T10:54:45.129Z,58.1
2019-02-10T10:55:35.203Z,58.4
2019-02-10T10:56:25.258Z,58.8
2019-02-10T10:57:17.010Z,59.1
2019-02-10T10:58:05.350Z,59.3
2019-02-10T10:58:55.413Z,59.6
2019-02-10T10:59:45.467Z,59.9
2019-02-10T11:00:35.253Z,60.1
2019-02-10T11:01:27.075Z,60.3
2019-02-10T11:02:15.639Z,60.5
2019-02-10T11:03:05.702Z,60.8
2019-02-10T11:03:55.761Z,60.9
2019-02-10T11:04:45.815Z,60.9
2019-02-10T11:05:35.882Z,61.1
2019-02-10T11:06:25.940Z,61.2
2019-02-10T11:07:15.980Z,61.4
2019-02-10T11:08:05.507Z,61.6
2019-02-10T11:08:56.111Z,61.8
2019-02-10T11:09:46.167Z,62
2019-02-10T11:10:36.227Z,62.1
2019-02-10T11:11:26.285Z,62.3
2019-02-10T11:12:16.334Z,62.4
2019-02-10T11:13:06.412Z,62.6
2019-02-10T11:13:56.449Z,62.5
2019-02-10T11:14:46.520Z,62.2
2019-02-10T11:15:36.590Z,62.3
2019-02-10T11:16:26.629Z,62.4
2019-02-10T11:17:16.693Z,62.6
2019-02-10T11:18:06.471Z,62.8
2019-02-10T11:18:56.804Z,63
2019-02-10T11:19:46.861Z,63.1
2019-02-10T11:20:36.916Z,63.3
2019-02-10T11:21:26.416Z,63.4
2019-02-10T11:22:17.033Z,63.5
2019-02-10T11:23:06.813Z,63.6
2019-02-10T11:23:57.150Z,63.8
2019-02-10T11:24:47.198Z,63.9
2019-02-10T11:25:37.268Z,64.1
2019-02-10T11:26:27.317Z,64.2
2019-02-10T11:27:17.446Z,64.3
2019-02-10T11:28:07.154Z,64.4
2019-02-10T11:28:57.491Z,64.5
2019-02-10T11:29:47.275Z,64.6
2019-02-10T11:30:37.610Z,64.4
2019-02-10T11:31:27.668Z,63
2019-02-10T11:32:17.736Z,61.9
2019-02-10T11:33:07.785Z,61.5
2019-02-10T11:33:57.838Z,61.6
2019-02-10T11:35:37.992Z,62
2019-02-10T11:36:28.013Z,62.2
2019-02-10T11:37:18.075Z,61.6
2019-02-10T11:38:08.129Z,61.4
2019-02-10T11:38:58.194Z,61.4
2019-02-10T11:39:48.249Z,61.5
2019-02-10T11:40:38.024Z,61.7
2019-02-10T11:41:28.077Z,61.8
2019-02-10T11:42:18.430Z,61.9
2019-02-10T11:43:08.472Z,62.2
2019-02-10T11:43:58.252Z,62.4
2019-02-10T11:44:48.311Z,62.5
2019-02-10T11:45:38.650Z,62.6
2019-02-10T11:46:28.419Z,62.8
2019-02-10T11:47:18.767Z,62.9
2019-02-10T11:48:09.408Z,63
2019-02-10T11:48:58.877Z,63.2
2019-02-10T11:49:48.937Z,63.4
2019-02-10T11:50:39.002Z,63.6
2019-02-10T11:51:28.782Z,63.7
2019-02-10T11:52:19.104Z,63.8
2019-02-10T11:53:09.162Z,63.9
2019-02-10T11:53:59.219Z,64.1
2019-02-10T11:54:49.310Z,64.2
2019-02-10T11:55:39.349Z,64.3
2019-02-10T11:56:29.401Z,64.4
2019-02-10T11:57:19.456Z,64.2
2019-02-10T11:58:09.508Z,64.2
2019-02-10T11:58:59.569Z,64.3
2019-02-10T11:59:49.635Z,64.4
2019-02-10T12:00:39.684Z,64.3
2019-02-10T12:01:29.826Z,63.9
2019-02-10T12:02:19.522Z,63.9
2019-02-10T12:03:09.593Z,63.9
2019-02-10T12:04:38.764Z,64.1
2019-02-10T12:07:11.521Z,63.9
2019-02-10T12:08:01.791Z,63.9
2019-02-10T12:08:51.851Z,63.9
2019-02-10T12:09:41.928Z,64
2019-02-10T12:10:31.961Z,64.2
2019-02-10T12:11:22.023Z,64.2
2019-02-10T12:12:11.583Z,64.3
2019-02-10T12:13:02.147Z,64.3
2019-02-10T12:13:52.210Z,64.4
2019-02-10T12:14:42.290Z,64.4
2019-02-10T12:15:32.040Z,64.4
2019-02-10T12:16:22.374Z,64.4
2019-02-10T12:17:12.425Z,64.3
2019-02-10T12:18:02.493Z,64.2
2019-02-10T12:18:52.590Z,64.3
2019-02-10T12:19:42.325Z,64.3
2019-02-10T12:20:32.673Z,64.4
2019-02-10T12:21:22.160Z,64.4
2019-02-10T12:22:12.495Z,64.6
2019-02-10T12:23:02.560Z,64.4
2019-02-10T12:23:52.913Z,64.2
2019-02-10T12:24:42.679Z,64.1
2019-02-10T12:25:33.035Z,63.9
2019-02-10T12:26:23.068Z,63.4
2019-02-10T12:27:13.119Z,63.4
2019-02-10T12:28:02.648Z,63.4
2019-02-10T12:28:52.962Z,63.1
2019-02-10T12:29:43.030Z,63.1
2019-02-10T12:30:33.075Z,63.1
2019-02-10T12:31:23.419Z,63
2019-02-10T12:32:13.474Z,63.1
2019-02-10T12:33:03.534Z,63.1
2019-02-10T12:33:53.667Z,63.3
2019-02-10T12:34:43.652Z,63.3
2019-02-10T12:35:33.426Z,63.3
2019-02-10T12:36:23.771Z,63.4
2019-02-10T12:37:13.867Z,63.5
2019-02-10T12:38:03.897Z,63.6
2019-02-10T12:38:53.939Z,63.6
2019-02-10T12:39:44.014Z,63.6
2019-02-10T12:40:34.073Z,63.7
2019-02-10T12:41:24.116Z,63.8
2019-02-10T12:42:13.891Z,63.8
2019-02-10T12:43:04.234Z,63.9
2019-02-10T12:43:54.026Z,63.9
2019-02-10T12:44:44.351Z,64.1
2019-02-10T12:45:34.132Z,64.1
2019-02-10T12:46:24.196Z,64.1
2019-02-10T12:47:14.251Z,64.1
2019-02-10T12:48:11.354Z,64
2019-02-10T12:48:54.646Z,63.9
2019-02-10T12:49:45.341Z,63.4
2019-02-10T12:50:34.492Z,63.1
2019-02-10T12:51:24.819Z,62.9
2019-02-10T12:52:14.920Z,62.9
2019-02-10T12:53:04.930Z,62.9
2019-02-10T12:53:54.995Z,62.8
2019-02-10T12:54:44.765Z,62.7
2019-02-10T12:55:35.103Z,62.7
2019-02-10T12:56:25.165Z,62.6
2019-02-10T12:57:14.688Z,62.5
2019-02-10T12:58:05.285Z,62.4
2019-02-10T12:58:55.333Z,62.3
2019-02-10T12:59:45.390Z,62.3
2019-02-10T13:00:35.455Z,62.3
2019-02-10T13:01:25.232Z,62.3
2019-02-10T13:02:15.289Z,62.2
2019-02-10T13:03:05.647Z,62.1
2019-02-10T13:03:55.737Z,62.1
2019-02-10T13:04:45.753Z,62.1
2019-02-10T13:05:35.550Z,62.1
2019-02-10T13:06:25.587Z,62
2019-02-10T13:07:15.914Z,62
2019-02-10T13:08:05.980Z,61.7
2019-02-10T13:08:56.034Z,61.3
2019-02-10T13:09:46.102Z,60.9
2019-02-10T13:10:35.877Z,60.8
2019-02-10T13:11:26.211Z,60.8
2019-02-10T13:12:16.269Z,60.7
2019-02-10T13:13:06.067Z,60.7
2019-02-10T13:13:56.107Z,60.8
2019-02-10T13:14:46.172Z,60.7
2019-02-10T13:15:36.246Z,60.6
2019-02-10T13:16:26.564Z,60.6
2019-02-10T13:17:16.624Z,60.6
2019-02-10T13:18:06.682Z,60.6
2019-02-10T13:18:56.729Z,60.6
2019-02-10T13:19:46.794Z,60.6
2019-02-10T13:20:36.861Z,60.6
2019-02-10T13:21:26.640Z,60.6
2019-02-10T13:22:16.969Z,60.7
2019-02-10T13:23:06.481Z,60.7
2019-02-10T13:23:56.811Z,60.8
2019-02-10T13:24:46.864Z,60.8
2019-02-10T13:25:37.203Z,60.8
2019-02-10T13:26:27.051Z,60.8
2019-02-10T13:27:16.776Z,60.5
2019-02-10T13:28:07.100Z,60.4
2019-02-10T13:28:57.433Z,60.3
2019-02-10T13:29:47.490Z,60.2
2019-02-10T13:30:37.555Z,60.2
2019-02-10T13:31:27.081Z,60.3
2019-02-10T13:32:17.681Z,60.3
2019-02-10T13:33:07.484Z,60.3
2019-02-10T13:33:57.784Z,60.3
2019-02-10T13:34:47.933Z,60.2
2019-02-10T13:35:37.901Z,60.1
2019-02-10T13:36:27.973Z,60.1
2019-02-10T13:37:18.038Z,60
2019-02-10T13:38:08.077Z,60
2019-02-10T13:38:57.859Z,59.9
2019-02-10T13:39:47.922Z,59.9
2019-02-10T13:40:38.274Z,59.9
2019-02-10T13:41:28.313Z,59.8
2019-02-10T13:42:18.370Z,59.8
2019-02-10T13:43:08.150Z,59.7
2019-02-10T13:43:58.209Z,59.7
2019-02-10T13:44:48.548Z,59.6
2019-02-10T13:45:38.601Z,59.6
2019-02-10T13:46:28.659Z,59.5
2019-02-10T13:47:18.720Z,59.4
2019-02-10T13:48:08.777Z,59.4
2019-02-10T13:48:58.554Z,59.3
2019-02-10T13:49:48.892Z,59.2
2019-02-10T13:50:38.964Z,59.1
2019-02-10T13:51:29.014Z,59.1
2019-02-10T13:52:19.077Z,59
2019-02-10T13:53:10.340Z,58.9
2019-02-10T13:53:59.186Z,58.8
2019-02-10T13:54:49.249Z,58.8
2019-02-10T13:55:39.032Z,58.7
2019-02-10T13:56:29.364Z,58.6
2019-02-10T13:58:09.209Z,58.5
2019-02-10T13:58:59.539Z,58.4
2019-02-10T13:59:49.334Z,58.4
2019-02-10T14:00:39.656Z,58.3
2019-02-10T14:01:29.716Z,58.2
2019-02-10T14:02:19.491Z,58.1
2019-02-10T14:03:09.623Z,58.1
2019-02-10T14:03:59.898Z,58
2019-02-10T14:04:49.951Z,57.9
2019-02-10T14:05:40.016Z,57.8
2019-02-10T14:08:11.359Z,57.6
2019-02-10T14:09:01.678Z,57.5
2019-02-10T14:09:51.749Z,57.4
2019-02-10T14:10:41.797Z,57.4
2019-02-10T14:11:31.858Z,57.3
2019-02-10T14:12:21.914Z,57.2
2019-02-10T14:13:11.966Z,57.1
2019-02-10T14:14:02.030Z,57
2019-02-10T14:14:51.810Z,56.9
2019-02-10T14:15:42.142Z,56.9
2019-02-10T14:16:32.268Z,56.8
2019-02-10T14:17:21.983Z,56.5
2019-02-10T14:18:12.109Z,55.3
2019-02-10T14:19:02.107Z,53.4
2019-02-10T14:19:52.450Z,51.4
2019-02-10T14:20:42.500Z,49.4
2019-02-10T14:21:32.563Z,47.8
2019-02-10T14:22:22.337Z,46.1
2019-02-10T14:23:12.392Z,45.2
2019-02-10T14:24:02.738Z,44.1
2019-02-10T14:24:52.790Z,42.4
2019-02-10T14:25:42.582Z,40.9
2019-02-10T14:26:32.935Z,39.3
2019-02-10T14:27:22.963Z,37.5
2019-02-10T14:28:13.070Z,35.9
2019-02-10T14:29:04.807Z,34.6